sensor_id;sensor_type;location;lat;lon;timestamp;P1;durP1;ratioP1;P2;durP2;ratioP2
42094;SDS011;27753;55.724;37.612;2023-09-19T00:01:08;26.63;;;18.00;;
42094;SDS011;27753;55.724;37.612;2023-09-19T00:03:34;26.88;;;19.00;;
42094;SDS011;27753;55.724;37.612;2023-09-19T00:06:04;25.08;;;18.27;;
42094;SDS011;27753;55.724;37.612;2023-09-19T00:08:32;26.20;;;17.38;;
42094;SDS011;27753;55.724;37.612;2023-09-19T00:10:58;25.25;;;18.88;;
42094;SDS011;27753;55.724;37.612;2023-09-19T00:13:31;26.95;;;18.65;;
42094;SDS011;27753;55.724;37.612;2023-09-19T00:15:57;23.23;;;18.03;;
42094;SDS011;27753;55.724;37.612;2023-09-19T00:18:24;25.83;;;16.52;;
42094;SDS011;27753;55.724;37.612;2023-09-19T00:20:57;25.05;;;16.98;;
42094;SDS011;27753;55.724;37.612;2023-09-19T00:23:23;25.60;;;17.92;;
42094;SDS011;27753;55.724;37.612;2023-09-19T00:25:50;25.88;;;17.80;;
42094;SDS011;27753;55.724;37.612;2023-09-19T00:28:16;26.80;;;19.27;;
42094;SDS011;27753;55.724;37.612;2023-09-19T00:30:45;29.25;;;22.30;;
42094;SDS011;27753;55.724;37.612;2023-09-19T00:33:20;28.00;;;22.35;;
42094;SDS011;27753;55.724;37.612;2023-09-19T00:35:50;29.00;;;23.25;;
42094;SDS011;27753;55.724;37.612;2023-09-19T00:38:20;31.15;;;24.17;;
42094;SDS011;27753;55.724;37.612;2023-09-19T00:40:48;38.42;;;27.92;;
42094;SDS011;27753;55.724;37.612;2023-09-19T00:43:15;35.65;;;30.50;;
42094;SDS011;27753;55.724;37.612;2023-09-19T00:45:42;34.17;;;26.85;;
42094;SDS011;27753;55.724;37.612;2023-09-19T00:48:10;39.67;;;28.10;;
42094;SDS011;27753;55.724;37.612;2023-09-19T00:50:37;38.78;;;29.05;;
42094;SDS011;27753;55.724;37.612;2023-09-19T00:53:07;35.72;;;28.08;;
42094;SDS011;27753;55.724;37.612;2023-09-19T00:55:38;32.10;;;26.75;;
42094;SDS011;27753;55.724;37.612;2023-09-19T00:58:04;36.15;;;27.05;;
42094;SDS011;27753;55.724;37.612;2023-09-19T01:00:31;35.97;;;26.70;;
42094;SDS011;27753;55.724;37.612;2023-09-19T01:02:59;36.55;;;26.67;;
42094;SDS011;27753;55.724;37.612;2023-09-19T01:05:27;31.08;;;24.05;;
42094;SDS011;27753;55.724;37.612;2023-09-19T01:07:53;32.53;;;25.90;;
42094;SDS011;27753;55.724;37.612;2023-09-19T01:10:19;34.50;;;25.90;;
42094;SDS011;27753;55.724;37.612;2023-09-19T01:18:43;31.50;;;23.58;;
42094;SDS011;27753;55.724;37.612;2023-09-19T01:30:03;30.92;;;22.50;;
42094;SDS011;27753;55.724;37.612;2023-09-19T01:32:34;28.05;;;20.92;;
42094;SDS011;27753;55.724;37.612;2023-09-19T01:35:03;33.97;;;23.13;;
42094;SDS011;27753;55.724;37.612;2023-09-19T01:37:31;34.85;;;22.60;;
42094;SDS011;27753;55.724;37.612;2023-09-19T01:39:58;30.05;;;23.45;;
42094;SDS011;27753;55.724;37.612;2023-09-19T01:42:50;32.88;;;22.58;;
42094;SDS011;27753;55.724;37.612;2023-09-19T01:50:40;28.20;;;21.80;;
42094;SDS011;27753;55.724;37.612;2023-09-19T01:53:30;29.88;;;23.98;;
42094;SDS011;27753;55.724;37.612;2023-09-19T01:56:01;30.08;;;23.23;;
42094;SDS011;27753;55.724;37.612;2023-09-19T01:58:48;30.90;;;22.25;;
42094;SDS011;27753;55.724;37.612;2023-09-19T02:01:22;36.40;;;24.80;;
42094;SDS011;27753;55.724;37.612;2023-09-19T02:03:49;28.73;;;23.80;;
42094;SDS011;27753;55.724;37.612;2023-09-19T02:06:16;30.35;;;22.98;;
42094;SDS011;27753;55.724;37.612;2023-09-19T02:08:44;29.50;;;23.15;;
42094;SDS011;27753;55.724;37.612;2023-09-19T02:11:11;33.90;;;24.27;;
42094;SDS011;27753;55.724;37.612;2023-09-19T02:13:38;28.85;;;23.23;;
42094;SDS011;27753;55.724;37.612;2023-09-19T02:16:04;29.88;;;22.20;;
42094;SDS011;27753;55.724;37.612;2023-09-19T02:18:31;28.70;;;22.35;;
42094;SDS011;27753;55.724;37.612;2023-09-19T02:21:00;29.13;;;22.38;;
42094;SDS011;27753;55.724;37.612;2023-09-19T02:23:26;32.10;;;23.47;;
42094;SDS011;27753;55.724;37.612;2023-09-19T02:25:56;28.08;;;21.60;;
42094;SDS011;27753;55.724;37.612;2023-09-19T02:28:31;26.45;;;21.83;;
42094;SDS011;27753;55.724;37.612;2023-09-19T02:30:57;27.90;;;22.02;;
42094;SDS011;27753;55.724;37.612;2023-09-19T02:33:23;35.03;;;23.33;;
42094;SDS011;27753;55.724;37.612;2023-09-19T02:35:49;28.42;;;22.02;;
42094;SDS011;27753;55.724;37.612;2023-09-19T02:38:19;28.02;;;22.73;;
42094;SDS011;27753;55.724;37.612;2023-09-19T02:40:49;24.98;;;22.08;;
42094;SDS011;27753;55.724;37.612;2023-09-19T02:43:16;29.67;;;21.77;;
42094;SDS011;27753;55.724;37.612;2023-09-19T02:45:42;27.98;;;21.98;;
42094;SDS011;27753;55.724;37.612;2023-09-19T02:48:08;35.08;;;21.95;;
42094;SDS011;27753;55.724;37.612;2023-09-19T02:50:34;34.53;;;22.17;;
42094;SDS011;27753;55.724;37.612;2023-09-19T02:52:59;29.05;;;21.33;;
42094;SDS011;27753;55.724;37.612;2023-09-19T02:55:25;28.55;;;21.40;;
42094;SDS011;27753;55.724;37.612;2023-09-19T02:57:52;31.52;;;22.48;;
42094;SDS011;27753;55.724;37.612;2023-09-19T03:00:21;28.75;;;21.83;;
42094;SDS011;27753;55.724;37.612;2023-09-19T03:02:48;30.98;;;22.75;;
42094;SDS011;27753;55.724;37.612;2023-09-19T03:05:15;26.25;;;20.25;;
42094;SDS011;27753;55.724;37.612;2023-09-19T03:07:41;32.03;;;21.13;;
42094;SDS011;27753;55.724;37.612;2023-09-19T03:10:08;30.88;;;21.92;;
42094;SDS011;27753;55.724;37.612;2023-09-19T03:12:35;27.33;;;21.05;;
42094;SDS011;27753;55.724;37.612;2023-09-19T03:15:01;30.58;;;20.60;;
42094;SDS011;27753;55.724;37.612;2023-09-19T03:17:29;28.30;;;20.92;;
42094;SDS011;27753;55.724;37.612;2023-09-19T03:19:55;27.35;;;20.05;;
42094;SDS011;27753;55.724;37.612;2023-09-19T03:22:22;26.38;;;21.77;;
42094;SDS011;27753;55.724;37.612;2023-09-19T03:24:49;30.65;;;21.70;;
42094;SDS011;27753;55.724;37.612;2023-09-19T03:27:15;31.35;;;21.48;;
42094;SDS011;27753;55.724;37.612;2023-09-19T03:29:41;25.92;;;20.95;;
42094;SDS011;27753;55.724;37.612;2023-09-19T03:32:08;36.28;;;21.35;;
42094;SDS011;27753;55.724;37.612;2023-09-19T03:34:39;34.78;;;20.65;;
42094;SDS011;27753;55.724;37.612;2023-09-19T03:37:08;25.55;;;20.33;;
42094;SDS011;27753;55.724;37.612;2023-09-19T03:39:34;26.33;;;19.58;;
42094;SDS011;27753;55.724;37.612;2023-09-19T03:42:01;30.17;;;22.42;;
42094;SDS011;27753;55.724;37.612;2023-09-19T03:44:32;28.38;;;21.08;;
42094;SDS011;27753;55.724;37.612;2023-09-19T03:46:58;27.23;;;21.60;;
42094;SDS011;27753;55.724;37.612;2023-09-19T03:49:23;28.38;;;20.08;;
42094;SDS011;27753;55.724;37.612;2023-09-19T03:51:49;29.17;;;20.27;;
42094;SDS011;27753;55.724;37.612;2023-09-19T03:54:15;26.65;;;21.05;;
42094;SDS011;27753;55.724;37.612;2023-09-19T03:56:44;33.22;;;20.52;;
42094;SDS011;27753;55.724;37.612;2023-09-19T03:59:10;32.90;;;20.00;;
42094;SDS011;27753;55.724;37.612;2023-09-19T04:01:37;28.58;;;21.55;;
42094;SDS011;27753;55.724;37.612;2023-09-19T04:04:06;24.83;;;21.67;;
42094;SDS011;27753;55.724;37.612;2023-09-19T04:06:36;30.67;;;21.92;;
42094;SDS011;27753;55.724;37.612;2023-09-19T04:09:02;30.40;;;20.80;;
42094;SDS011;27753;55.724;37.612;2023-09-19T04:11:32;31.77;;;22.52;;
42094;SDS011;27753;55.724;37.612;2023-09-19T04:13:58;31.30;;;22.52;;
42094;SDS011;27753;55.724;37.612;2023-09-19T04:16:25;36.75;;;23.35;;
42094;SDS011;27753;55.724;37.612;2023-09-19T04:18:50;36.92;;;24.30;;
42094;SDS011;27753;55.724;37.612;2023-09-19T04:21:16;34.28;;;23.95;;
42094;SDS011;27753;55.724;37.612;2023-09-19T04:23:42;24.90;;;21.15;;
42094;SDS011;27753;55.724;37.612;2023-09-19T04:26:08;33.17;;;23.38;;
42094;SDS011;27753;55.724;37.612;2023-09-19T04:28:34;33.03;;;23.50;;
42094;SDS011;27753;55.724;37.612;2023-09-19T04:31:01;31.30;;;23.52;;
42094;SDS011;27753;55.724;37.612;2023-09-19T04:33:28;32.10;;;23.63;;
42094;SDS011;27753;55.724;37.612;2023-09-19T04:35:54;33.20;;;24.90;;
42094;SDS011;27753;55.724;37.612;2023-09-19T04:38:21;26.30;;;22.95;;
42094;SDS011;27753;55.724;37.612;2023-09-19T04:40:47;38.15;;;24.92;;
42094;SDS011;27753;55.724;37.612;2023-09-19T04:43:13;31.77;;;23.88;;
42094;SDS011;27753;55.724;37.612;2023-09-19T04:45:40;32.53;;;23.00;;
42094;SDS011;27753;55.724;37.612;2023-09-19T04:48:06;32.90;;;21.08;;
42094;SDS011;27753;55.724;37.612;2023-09-19T04:50:33;33.35;;;21.48;;
42094;SDS011;27753;55.724;37.612;2023-09-19T04:52:59;28.23;;;19.50;;
42094;SDS011;27753;55.724;37.612;2023-09-19T04:55:26;34.77;;;20.07;;
42094;SDS011;27753;55.724;37.612;2023-09-19T04:57:52;25.50;;;19.90;;
42094;SDS011;27753;55.724;37.612;2023-09-19T05:00:21;29.77;;;19.85;;
42094;SDS011;27753;55.724;37.612;2023-09-19T05:02:55;25.50;;;19.00;;
42094;SDS011;27753;55.724;37.612;2023-09-19T05:05:21;26.60;;;20.92;;
42094;SDS011;27753;55.724;37.612;2023-09-19T05:07:48;24.58;;;18.17;;
42094;SDS011;27753;55.724;37.612;2023-09-19T05:10:14;29.17;;;19.42;;
42094;SDS011;27753;55.724;37.612;2023-09-19T05:12:44;27.30;;;20.23;;
42094;SDS011;27753;55.724;37.612;2023-09-19T05:15:13;24.92;;;20.85;;
42094;SDS011;27753;55.724;37.612;2023-09-19T05:17:42;34.47;;;21.73;;
42094;SDS011;27753;55.724;37.612;2023-09-19T05:20:12;29.98;;;19.00;;
42094;SDS011;27753;55.724;37.612;2023-09-19T05:22:44;28.40;;;20.48;;
42094;SDS011;27753;55.724;37.612;2023-09-19T05:25:11;24.40;;;18.80;;
42094;SDS011;27753;55.724;37.612;2023-09-19T05:27:42;29.08;;;19.92;;
42094;SDS011;27753;55.724;37.612;2023-09-19T05:30:08;29.20;;;20.08;;
42094;SDS011;27753;55.724;37.612;2023-09-19T05:32:34;27.42;;;18.08;;
42094;SDS011;27753;55.724;37.612;2023-09-19T05:35:00;26.30;;;18.52;;
42094;SDS011;27753;55.724;37.612;2023-09-19T05:37:26;24.63;;;18.55;;
42094;SDS011;27753;55.724;37.612;2023-09-19T05:39:52;27.88;;;18.55;;
42094;SDS011;27753;55.724;37.612;2023-09-19T05:42:20;22.58;;;18.08;;
42094;SDS011;27753;55.724;37.612;2023-09-19T05:44:46;28.85;;;25.00;;
42094;SDS011;27753;55.724;37.612;2023-09-19T05:47:12;20.45;;;16.92;;
42094;SDS011;27753;55.724;37.612;2023-09-19T05:49:38;26.30;;;18.67;;
42094;SDS011;27753;55.724;37.612;2023-09-19T05:52:06;23.20;;;17.80;;
42094;SDS011;27753;55.724;37.612;2023-09-19T05:54:32;34.88;;;24.67;;
42094;SDS011;27753;55.724;37.612;2023-09-19T05:57:01;29.90;;;20.40;;
42094;SDS011;27753;55.724;37.612;2023-09-19T05:59:27;32.70;;;19.98;;
42094;SDS011;27753;55.724;37.612;2023-09-19T06:01:53;32.47;;;19.67;;
42094;SDS011;27753;55.724;37.612;2023-09-19T06:04:20;24.67;;;19.67;;
42094;SDS011;27753;55.724;37.612;2023-09-19T06:06:46;22.48;;;17.70;;
42094;SDS011;27753;55.724;37.612;2023-09-19T06:09:13;28.33;;;19.90;;
42094;SDS011;27753;55.724;37.612;2023-09-19T06:11:41;31.02;;;20.42;;
42094;SDS011;27753;55.724;37.612;2023-09-19T06:14:07;23.90;;;19.15;;
42094;SDS011;27753;55.724;37.612;2023-09-19T06:16:36;48.17;;;22.40;;
42094;SDS011;27753;55.724;37.612;2023-09-19T06:19:06;29.70;;;19.55;;
42094;SDS011;27753;55.724;37.612;2023-09-19T06:21:34;23.92;;;16.70;;
42094;SDS011;27753;55.724;37.612;2023-09-19T06:23:59;26.33;;;18.88;;
42094;SDS011;27753;55.724;37.612;2023-09-19T06:26:25;26.05;;;19.80;;
42094;SDS011;27753;55.724;37.612;2023-09-19T06:28:52;23.70;;;18.73;;
42094;SDS011;27753;55.724;37.612;2023-09-19T06:31:17;26.15;;;20.13;;
42094;SDS011;27753;55.724;37.612;2023-09-19T06:33:43;26.83;;;19.65;;
42094;SDS011;27753;55.724;37.612;2023-09-19T06:36:09;29.23;;;19.38;;
42094;SDS011;27753;55.724;37.612;2023-09-19T06:38:36;26.98;;;18.50;;
42094;SDS011;27753;55.724;37.612;2023-09-19T06:41:04;23.38;;;17.33;;
42094;SDS011;27753;55.724;37.612;2023-09-19T06:43:31;22.00;;;18.35;;
42094;SDS011;27753;55.724;37.612;2023-09-19T06:45:59;27.48;;;19.00;;
42094;SDS011;27753;55.724;37.612;2023-09-19T06:48:25;25.65;;;19.15;;
42094;SDS011;27753;55.724;37.612;2023-09-19T06:50:55;22.98;;;17.70;;
42094;SDS011;27753;55.724;37.612;2023-09-19T06:53:23;26.35;;;17.30;;
42094;SDS011;27753;55.724;37.612;2023-09-19T06:55:52;23.15;;;18.08;;
42094;SDS011;27753;55.724;37.612;2023-09-19T06:58:19;27.30;;;20.15;;
42094;SDS011;27753;55.724;37.612;2023-09-19T07:00:45;24.98;;;19.75;;
42094;SDS011;27753;55.724;37.612;2023-09-19T07:03:13;27.63;;;20.30;;
42094;SDS011;27753;55.724;37.612;2023-09-19T07:05:41;27.02;;;20.73;;
42094;SDS011;27753;55.724;37.612;2023-09-19T07:08:08;29.70;;;20.50;;
42094;SDS011;27753;55.724;37.612;2023-09-19T07:10:37;24.00;;;19.50;;
42094;SDS011;27753;55.724;37.612;2023-09-19T07:13:12;27.30;;;20.70;;
42094;SDS011;27753;55.724;37.612;2023-09-19T07:15:38;26.80;;;20.15;;
42094;SDS011;27753;55.724;37.612;2023-09-19T07:18:05;31.15;;;21.23;;
42094;SDS011;27753;55.724;37.612;2023-09-19T07:20:31;24.10;;;19.77;;
42094;SDS011;27753;55.724;37.612;2023-09-19T07:22:58;33.45;;;22.33;;
42094;SDS011;27753;55.724;37.612;2023-09-19T07:25:27;29.75;;;21.10;;
42094;SDS011;27753;55.724;37.612;2023-09-19T07:27:59;30.17;;;22.00;;
42094;SDS011;27753;55.724;37.612;2023-09-19T07:30:25;59.10;;;25.48;;
42094;SDS011;27753;55.724;37.612;2023-09-19T07:32:51;31.20;;;20.30;;
42094;SDS011;27753;55.724;37.612;2023-09-19T07:35:18;28.88;;;22.05;;
42094;SDS011;27753;55.724;37.612;2023-09-19T07:37:45;38.55;;;23.15;;
42094;SDS011;27753;55.724;37.612;2023-09-19T07:40:17;26.58;;;23.08;;
42094;SDS011;27753;55.724;37.612;2023-09-19T07:42:44;31.25;;;21.95;;
42094;SDS011;27753;55.724;37.612;2023-09-19T07:45:12;26.25;;;20.83;;
42094;SDS011;27753;55.724;37.612;2023-09-19T07:47:48;25.40;;;19.80;;
42094;SDS011;27753;55.724;37.612;2023-09-19T07:50:16;27.85;;;21.95;;
42094;SDS011;27753;55.724;37.612;2023-09-19T07:52:44;29.25;;;22.83;;
42094;SDS011;27753;55.724;37.612;2023-09-19T07:55:10;31.95;;;21.00;;
42094;SDS011;27753;55.724;37.612;2023-09-19T07:57:41;29.25;;;20.98;;
42094;SDS011;27753;55.724;37.612;2023-09-19T08:00:07;50.57;;;26.77;;
42094;SDS011;27753;55.724;37.612;2023-09-19T08:02:37;31.88;;;22.70;;
42094;SDS011;27753;55.724;37.612;2023-09-19T08:05:05;24.20;;;21.25;;
42094;SDS011;27753;55.724;37.612;2023-09-19T08:07:36;29.75;;;20.15;;
42094;SDS011;27753;55.724;37.612;2023-09-19T08:10:03;26.48;;;20.85;;
42094;SDS011;27753;55.724;37.612;2023-09-19T08:12:31;31.10;;;22.35;;
42094;SDS011;27753;55.724;37.612;2023-09-19T08:14:57;41.87;;;23.33;;
42094;SDS011;27753;55.724;37.612;2023-09-19T08:17:23;26.70;;;21.20;;
42094;SDS011;27753;55.724;37.612;2023-09-19T08:19:49;36.95;;;22.42;;
42094;SDS011;27753;55.724;37.612;2023-09-19T08:22:18;30.52;;;20.45;;
42094;SDS011;27753;55.724;37.612;2023-09-19T08:27:11;38.30;;;22.23;;
42094;SDS011;27753;55.724;37.612;2023-09-19T08:29:37;23.52;;;20.92;;
42094;SDS011;27753;55.724;37.612;2023-09-19T08:32:03;29.05;;;21.75;;
42094;SDS011;27753;55.724;37.612;2023-09-19T08:34:29;38.88;;;22.98;;
42094;SDS011;27753;55.724;37.612;2023-09-19T08:36:58;25.52;;;21.95;;
42094;SDS011;27753;55.724;37.612;2023-09-19T08:39:24;59.03;;;25.67;;
42094;SDS011;27753;55.724;37.612;2023-09-19T08:41:57;27.70;;;21.15;;
42094;SDS011;27753;55.724;37.612;2023-09-19T08:44:27;32.13;;;21.77;;
42094;SDS011;27753;55.724;37.612;2023-09-19T08:46:55;27.10;;;19.83;;
42094;SDS011;27753;55.724;37.612;2023-09-19T08:49:36;29.63;;;21.35;;
42094;SDS011;27753;55.724;37.612;2023-09-19T08:52:15;36.78;;;21.85;;
42094;SDS011;27753;55.724;37.612;2023-09-19T08:54:48;25.60;;;21.00;;
42094;SDS011;27753;55.724;37.612;2023-09-19T08:57:18;51.38;;;24.63;;
42094;SDS011;27753;55.724;37.612;2023-09-19T08:59:47;31.88;;;22.48;;
42094;SDS011;27753;55.724;37.612;2023-09-19T09:02:15;30.50;;;23.05;;
42094;SDS011;27753;55.724;37.612;2023-09-19T09:04:43;27.85;;;22.42;;
42094;SDS011;27753;55.724;37.612;2023-09-19T09:07:11;31.52;;;22.98;;
42094;SDS011;27753;55.724;37.612;2023-09-19T09:09:38;44.75;;;23.48;;
42094;SDS011;27753;55.724;37.612;2023-09-19T09:12:12;32.97;;;23.25;;
42094;SDS011;27753;55.724;37.612;2023-09-19T09:14:45;25.17;;;20.77;;
42094;SDS011;27753;55.724;37.612;2023-09-19T09:17:15;27.25;;;20.48;;
42094;SDS011;27753;55.724;37.612;2023-09-19T09:19:45;24.83;;;21.83;;
42094;SDS011;27753;55.724;37.612;2023-09-19T09:22:12;38.83;;;22.45;;
42094;SDS011;27753;55.724;37.612;2023-09-19T09:24:50;25.65;;;20.25;;
42094;SDS011;27753;55.724;37.612;2023-09-19T09:27:23;37.50;;;23.02;;
42094;SDS011;27753;55.724;37.612;2023-09-19T09:29:49;34.78;;;22.13;;
42094;SDS011;27753;55.724;37.612;2023-09-19T09:34:53;28.02;;;20.27;;
42094;SDS011;27753;55.724;37.612;2023-09-19T09:37:23;37.33;;;24.27;;
42094;SDS011;27753;55.724;37.612;2023-09-19T09:39:59;43.95;;;25.83;;
42094;SDS011;27753;55.724;37.612;2023-09-19T09:42:42;38.38;;;22.95;;
42094;SDS011;27753;55.724;37.612;2023-09-19T09:45:18;38.33;;;28.75;;
42094;SDS011;27753;55.724;37.612;2023-09-19T09:48:14;43.45;;;28.42;;
42094;SDS011;27753;55.724;37.612;2023-09-19T09:50:47;36.35;;;23.50;;
42094;SDS011;27753;55.724;37.612;2023-09-19T09:53:26;40.95;;;24.98;;
42094;SDS011;27753;55.724;37.612;2023-09-19T09:58:38;34.00;;;22.17;;
42094;SDS011;27753;55.724;37.612;2023-09-19T10:01:16;67.82;;;34.92;;
42094;SDS011;27753;55.724;37.612;2023-09-19T10:03:43;33.50;;;22.77;;
42094;SDS011;27753;55.724;37.612;2023-09-19T10:06:13;30.40;;;21.92;;
42094;SDS011;27753;55.724;37.612;2023-09-19T10:09:02;38.08;;;23.90;;
42094;SDS011;27753;55.724;37.612;2023-09-19T10:11:46;26.33;;;21.27;;
42094;SDS011;27753;55.724;37.612;2023-09-19T10:14:21;31.70;;;18.42;;
42094;SDS011;27753;55.724;37.612;2023-09-19T10:16:56;31.30;;;21.80;;
42094;SDS011;27753;55.724;37.612;2023-09-19T10:22:26;30.83;;;20.55;;
42094;SDS011;27753;55.724;37.612;2023-09-19T10:24:55;31.00;;;22.55;;
42094;SDS011;27753;55.724;37.612;2023-09-19T10:27:25;25.75;;;20.98;;
42094;SDS011;27753;55.724;37.612;2023-09-19T10:29:51;25.80;;;21.05;;
42094;SDS011;27753;55.724;37.612;2023-09-19T10:32:23;25.50;;;20.42;;
42094;SDS011;27753;55.724;37.612;2023-09-19T10:34:50;31.13;;;21.58;;
42094;SDS011;27753;55.724;37.612;2023-09-19T10:37:20;24.38;;;18.05;;
42094;SDS011;27753;55.724;37.612;2023-09-19T10:39:50;29.73;;;19.98;;
42094;SDS011;27753;55.724;37.612;2023-09-19T10:42:19;27.92;;;20.00;;
42094;SDS011;27753;55.724;37.612;2023-09-19T10:44:47;24.07;;;20.43;;
42094;SDS011;27753;55.724;37.612;2023-09-19T10:47:20;37.65;;;29.23;;
42094;SDS011;27753;55.724;37.612;2023-09-19T10:49:49;26.92;;;20.42;;
42094;SDS011;27753;55.724;37.612;2023-09-19T10:52:15;30.13;;;20.30;;
42094;SDS011;27753;55.724;37.612;2023-09-19T10:54:46;26.48;;;21.40;;
42094;SDS011;27753;55.724;37.612;2023-09-19T10:57:21;25.50;;;20.45;;
42094;SDS011;27753;55.724;37.612;2023-09-19T11:00:04;23.27;;;19.13;;
42094;SDS011;27753;55.724;37.612;2023-09-19T11:05:40;27.23;;;19.35;;
42094;SDS011;27753;55.724;37.612;2023-09-19T11:08:06;28.40;;;19.92;;
42094;SDS011;27753;55.724;37.612;2023-09-19T11:10:49;28.83;;;20.03;;
42094;SDS011;27753;55.724;37.612;2023-09-19T11:13:26;22.77;;;19.27;;
42094;SDS011;27753;55.724;37.612;2023-09-19T11:26:42;24.15;;;18.70;;
42094;SDS011;27753;55.724;37.612;2023-09-19T11:29:24;32.65;;;20.27;;
42094;SDS011;27753;55.724;37.612;2023-09-19T11:31:55;29.70;;;19.60;;
42094;SDS011;27753;55.724;37.612;2023-09-19T11:34:42;28.55;;;23.00;;
42094;SDS011;27753;55.724;37.612;2023-09-19T11:39:39;22.23;;;18.45;;
42094;SDS011;27753;55.724;37.612;2023-09-19T11:42:45;29.23;;;19.98;;
42094;SDS011;27753;55.724;37.612;2023-09-19T11:48:15;31.87;;;20.40;;
42094;SDS011;27753;55.724;37.612;2023-09-19T11:50:43;42.00;;;23.63;;
42094;SDS011;27753;55.724;37.612;2023-09-19T11:53:12;27.23;;;18.77;;
42094;SDS011;27753;55.724;37.612;2023-09-19T11:55:42;26.38;;;18.75;;
42094;SDS011;27753;55.724;37.612;2023-09-19T11:58:13;28.25;;;19.88;;
42094;SDS011;27753;55.724;37.612;2023-09-19T12:00:41;27.15;;;17.58;;
42094;SDS011;27753;55.724;37.612;2023-09-19T12:03:10;31.95;;;18.40;;
42094;SDS011;27753;55.724;37.612;2023-09-19T12:05:39;22.67;;;18.30;;
42094;SDS011;27753;55.724;37.612;2023-09-19T12:08:06;28.80;;;18.02;;
42094;SDS011;27753;55.724;37.612;2023-09-19T12:10:47;22.45;;;16.83;;
42094;SDS011;27753;55.724;37.612;2023-09-19T12:13:17;25.42;;;18.25;;
42094;SDS011;27753;55.724;37.612;2023-09-19T12:15:49;27.73;;;18.25;;
42094;SDS011;27753;55.724;37.612;2023-09-19T12:18:28;27.13;;;18.10;;
42094;SDS011;27753;55.724;37.612;2023-09-19T12:20:54;24.52;;;16.67;;
42094;SDS011;27753;55.724;37.612;2023-09-19T12:23:22;20.20;;;16.17;;
42094;SDS011;27753;55.724;37.612;2023-09-19T12:25:48;27.50;;;17.05;;
42094;SDS011;27753;55.724;37.612;2023-09-19T12:28:19;25.35;;;16.70;;
42094;SDS011;27753;55.724;37.612;2023-09-19T12:30:48;27.70;;;19.10;;
42094;SDS011;27753;55.724;37.612;2023-09-19T12:33:15;23.80;;;17.23;;
42094;SDS011;27753;55.724;37.612;2023-09-19T12:35:44;37.00;;;18.55;;
42094;SDS011;27753;55.724;37.612;2023-09-19T12:38:10;24.20;;;18.10;;
42094;SDS011;27753;55.724;37.612;2023-09-19T12:40:49;28.40;;;17.08;;
42094;SDS011;27753;55.724;37.612;2023-09-19T12:43:16;32.67;;;18.17;;
42094;SDS011;27753;55.724;37.612;2023-09-19T12:45:43;31.55;;;18.02;;
42094;SDS011;27753;55.724;37.612;2023-09-19T12:48:22;23.17;;;16.70;;
42094;SDS011;27753;55.724;37.612;2023-09-19T12:50:59;28.47;;;17.53;;
42094;SDS011;27753;55.724;37.612;2023-09-19T12:53:26;22.77;;;17.05;;
42094;SDS011;27753;55.724;37.612;2023-09-19T12:55:58;27.13;;;16.55;;
42094;SDS011;27753;55.724;37.612;2023-09-19T12:58:24;28.63;;;17.30;;
42094;SDS011;27753;55.724;37.612;2023-09-19T13:00:50;24.75;;;18.20;;
42094;SDS011;27753;55.724;37.612;2023-09-19T13:03:26;26.27;;;16.92;;
42094;SDS011;27753;55.724;37.612;2023-09-19T13:06:00;19.05;;;15.60;;
42094;SDS011;27753;55.724;37.612;2023-09-19T13:13:34;23.25;;;15.05;;
42094;SDS011;27753;55.724;37.612;2023-09-19T13:16:02;32.22;;;17.08;;
42094;SDS011;27753;55.724;37.612;2023-09-19T13:18:41;33.38;;;19.15;;
42094;SDS011;27753;55.724;37.612;2023-09-19T13:21:09;25.45;;;16.67;;
42094;SDS011;27753;55.724;37.612;2023-09-19T13:23:55;39.42;;;17.90;;
42094;SDS011;27753;55.724;37.612;2023-09-19T13:26:27;33.70;;;17.90;;
42094;SDS011;27753;55.724;37.612;2023-09-19T13:28:56;24.58;;;15.55;;
42094;SDS011;27753;55.724;37.612;2023-09-19T13:31:22;30.98;;;17.17;;
42094;SDS011;27753;55.724;37.612;2023-09-19T13:33:49;27.77;;;17.30;;
42094;SDS011;27753;55.724;37.612;2023-09-19T13:36:15;27.23;;;16.83;;
42094;SDS011;27753;55.724;37.612;2023-09-19T13:38:43;24.33;;;16.17;;
42094;SDS011;27753;55.724;37.612;2023-09-19T13:41:09;27.60;;;16.17;;
42094;SDS011;27753;55.724;37.612;2023-09-19T13:43:36;18.33;;;14.77;;
42094;SDS011;27753;55.724;37.612;2023-09-19T13:46:03;24.17;;;15.27;;
42094;SDS011;27753;55.724;37.612;2023-09-19T13:48:32;21.67;;;14.77;;
42094;SDS011;27753;55.724;37.612;2023-09-19T13:51:01;18.33;;;11.88;;
42094;SDS011;27753;55.724;37.612;2023-09-19T13:53:27;23.10;;;14.68;;
42094;SDS011;27753;55.724;37.612;2023-09-19T13:55:53;14.55;;;11.45;;
42094;SDS011;27753;55.724;37.612;2023-09-19T13:58:19;17.33;;;11.70;;
42094;SDS011;27753;55.724;37.612;2023-09-19T14:00:46;15.75;;;11.35;;
42094;SDS011;27753;55.724;37.612;2023-09-19T14:03:12;19.63;;;13.48;;
42094;SDS011;27753;55.724;37.612;2023-09-19T14:05:38;16.27;;;12.82;;
42094;SDS011;27753;55.724;37.612;2023-09-19T14:08:04;17.42;;;11.93;;
42094;SDS011;27753;55.724;37.612;2023-09-19T14:10:30;16.80;;;12.45;;
42094;SDS011;27753;55.724;37.612;2023-09-19T14:12:57;16.85;;;12.65;;
42094;SDS011;27753;55.724;37.612;2023-09-19T14:15:24;21.08;;;12.38;;
42094;SDS011;27753;55.724;37.612;2023-09-19T14:17:55;16.70;;;12.55;;
42094;SDS011;27753;55.724;37.612;2023-09-19T14:20:51;16.20;;;12.75;;
42094;SDS011;27753;55.724;37.612;2023-09-19T14:23:18;21.33;;;15.07;;
42094;SDS011;27753;55.724;37.612;2023-09-19T14:25:44;20.17;;;14.18;;
42094;SDS011;27753;55.724;37.612;2023-09-19T14:28:09;22.77;;;14.65;;
42094;SDS011;27753;55.724;37.612;2023-09-19T14:30:35;21.70;;;15.90;;
42094;SDS011;27753;55.724;37.612;2023-09-19T14:33:02;18.23;;;14.67;;
42094;SDS011;27753;55.724;37.612;2023-09-19T14:35:28;17.65;;;13.13;;
42094;SDS011;27753;55.724;37.612;2023-09-19T14:37:55;21.67;;;14.98;;
42094;SDS011;27753;55.724;37.612;2023-09-19T14:40:21;18.02;;;14.82;;
42094;SDS011;27753;55.724;37.612;2023-09-19T14:42:47;25.08;;;15.90;;
42094;SDS011;27753;55.724;37.612;2023-09-19T14:45:13;21.27;;;14.95;;
42094;SDS011;27753;55.724;37.612;2023-09-19T14:47:43;20.98;;;15.45;;
42094;SDS011;27753;55.724;37.612;2023-09-19T14:50:11;16.85;;;13.23;;
42094;SDS011;27753;55.724;37.612;2023-09-19T14:52:37;20.93;;;14.83;;
42094;SDS011;27753;55.724;37.612;2023-09-19T14:55:05;26.27;;;14.90;;
42094;SDS011;27753;55.724;37.612;2023-09-19T14:57:34;21.33;;;13.95;;
42094;SDS011;27753;55.724;37.612;2023-09-19T15:00:00;20.60;;;15.25;;
42094;SDS011;27753;55.724;37.612;2023-09-19T15:02:26;24.70;;;15.32;;
42094;SDS011;27753;55.724;37.612;2023-09-19T15:04:52;21.95;;;14.75;;
42094;SDS011;27753;55.724;37.612;2023-09-19T15:07:18;17.40;;;13.95;;
42094;SDS011;27753;55.724;37.612;2023-09-19T15:09:44;22.83;;;15.10;;
42094;SDS011;27753;55.724;37.612;2023-09-19T15:12:11;22.13;;;13.82;;
42094;SDS011;27753;55.724;37.612;2023-09-19T15:14:39;24.58;;;13.55;;